• Join FlightAware (Why Join?)
  • Login
  • US Flag 
05:46AM EDT


 

Airport Tracker/Info


-or-


 

Live Flight TrackerFlight Track Log ✈ N545RW ✈ 30-Mar-2014 ✈ KAPA - KCHA

Flight Track Log - Related Links

Times and Time Zones

All times are in EDT time to prevent confusion due to time zone crossing. See the N545RW flight status page for this flight to view local times or setup timezone preferences in your user account.

Time Position Orientation Groundspeed Altitude Reporting Facility
EDT Latitude Longitude Course Direction KTS MPH feet Rate Location/Type
03:33PM 39.5167 -104.7833 123° Southeast 223 257 8,300  Level Denver TRACON
03:34PM 39.5281 -104.7292 75° East 223 257 10,200 1,800 Climbing Denver Center
03:35PM 39.5517 -104.6317 73° East 230 265 12,000 840 Climbing Denver Center
03:36PM 39.5764 -104.5178 74° East 311 358 12,000  Level Denver Center
03:37PM 39.6011 -104.4061 74° East 321 369 12,000  Level Denver Center
03:38PM 39.6278 -104.2839 74° East 328 377 12,100 720 Climbing Denver Center
03:39PM 39.6494 -104.1731 76° East 321 369 13,600 1,260 Climbing Denver Center
03:40PM 39.6333 -104.0797 103° East 316 364 14,800 1,440 Climbing Denver Center
03:41PM 39.6125 -103.9431 101° East 315 362 16,600 1,620 Climbing Denver Center
03:42PM 39.5964 -103.8272 100° East 329 379 18,200 1,500 Climbing Denver Center
03:43PM 39.5778 -103.7131 102° East 316 364 19,700 1,320 Climbing Denver Center
03:44PM 39.5603 -103.6017 101° East 313 360 21,000 1,080 Climbing Denver Center
03:45PM 39.5428 -103.4853 101° East 327 376 22,000 900 Climbing Denver Center
03:46PM 39.5269 -103.3917 102° East 334 384 22,900 1,080 Climbing Denver Center
03:47PM 39.5003 -103.2225 101° East 341 392 24,300 1,140 Climbing Denver Center
03:48PM 39.4808 -103.0997 102° East 347 399 25,300 960 Climbing Denver Center
03:49PM 39.4608 -102.9756 102° East 351 404 26,400 960 Climbing Denver Center
03:50PM 39.4417 -102.8522 101° East 351 404 27,400 900 Climbing Denver Center
03:52PM 39.4211 -102.7328 103° East 345 397 28,300 840 Climbing Denver Center
03:53PM 39.4014 -102.6119 102° East 344 396 29,200 900 Climbing Denver Center
03:54PM 39.3772 -102.4667 102° East 345 397 30,200 780 Climbing Denver Center
03:55PM 39.3597 -102.3567 102° East 346 398 30,900 720 Climbing Denver Center
03:56PM 39.3372 -102.2267 103° East 346 398 31,800 720 Climbing Denver Center
03:57PM 39.3139 -102.0886 102° East 351 404 32,400 540 Climbing Denver Center
03:58PM 39.2925 -101.9678 103° East 357 411 33,000 540 Climbing Denver Center
03:59PM 39.2689 -101.8253 102° East 361 415 33,600 480 Climbing Denver Center
04:00PM 39.2464 -101.6969 103° East 366 421 34,100 480 Climbing Denver Center
04:01PM 39.2250 -101.5758 103° East 365 420 34,700 360 Climbing Denver Center
04:02PM 39.1964 -101.4122 103° East 367 422 35,000 120 Climbing Denver Center
04:03PM 39.1731 -101.2803 103° East 387 445 35,000  Level Denver Center
04:04PM 39.1456 -101.1258 103° East 396 456 35,000  Level Denver Center
04:05PM 39.1217 -100.9914 103° East 400 460 35,000  Level Denver Center
04:06PM 39.0922 -100.8300 103° East 414 476 35,000  Level Denver Center
04:07PM 39.0667 -100.6892 103° East 416 479 35,000  Level Denver Center
04:08PM 39.0378 -100.5300 103° East 414 476 35,000  Level Denver Center
04:09PM 39.0119 -100.3936 104° East 414 476 35,000  Level Denver Center
04:15PM 38.8594 -99.5953 104° East 411 473 35,000  Level Kansas City Center
04:16PM 38.8487 -99.6507 104° East  Level FlightAware Approximate
04:16PM 38.8367 -99.4742 104° East 409 471 35,000  Level Kansas City Center
04:17PM 38.8031 -99.3064 104° East 409 471 35,000  Level Kansas City Center
04:18PM 38.7767 -99.1656 103° East 408 470 35,000  Level Kansas City Center
04:19PM 38.7489 -99.0264 104° East 406 467 35,000  Level Kansas City Center
04:20PM 38.7200 -98.8856 105° East 406 467 35,000  Level Kansas City Center
04:21PM 38.6914 -98.7442 104° East 409 471 35,000  Level Kansas City Center
04:22PM 38.6636 -98.6028 104° East 410 472 35,000  Level Kansas City Center
04:23PM 38.6728 -98.7576 104° East  Level FlightAware Approximate
04:23PM 38.6283 -98.4328 105° East 410 472 35,000  Level Kansas City Center
04:24PM 38.6472 -98.6304 104° East  Level FlightAware Approximate
04:24PM 38.6000 -98.2922 104° East 410 472 35,000  Level Kansas City Center
04:25PM 38.6215 -98.5032 104° East  Level FlightAware Approximate
04:25PM 38.5714 -98.1508 104° East 410 472 35,000  Level Kansas City Center
04:26PM 38.5417 -98.0103 105° East 410 472 35,000  Level Kansas City Center
04:27PM 38.5122 -97.8672 105° East 411 473 35,000  Level Kansas City Center
04:28PM 38.4822 -97.7253 105° East 411 473 35,000  Level Kansas City Center
04:29PM 38.4511 -97.5819 105° East 412 474 35,000  Level Kansas City Center
04:30PM 38.4144 -97.4100 105° East 414 476 35,000 180 Level Kansas City Center
04:31PM 38.3839 -97.2675 105° East 416 479 35,400 540 Climbing Kansas City Center
04:32PM 38.3542 -97.1300 105° East 406 467 36,200 780 Climbing Kansas City Center
04:33PM 38.3267 -97.0011 105° East 382 440 37,100 660 Climbing Kansas City Center
04:34PM 38.2986 -96.8761 106° East 371 427 37,600 480 Climbing Kansas City Center
04:35PM 38.2708 -96.7517 106° East 368 423 38,100 420 Climbing Kansas City Center
04:37PM 38.2433 -96.6267 106° East 368 423 38,500 360 Climbing Kansas City Center
04:38PM 38.2094 -96.4767 106° East 368 423 38,900 300 Climbing Kansas City Center
04:39PM 38.1819 -96.3500 105° East 369 425 39,200 240 Climbing Kansas City Center
04:40PM 38.1536 -96.2250 106° East 369 425 39,500 300 Climbing Kansas City Center
04:41PM 38.1203 -96.0831 107° East 370 426 39,900 300 Climbing Kansas City Center
04:42PM 38.0942 -95.9631 105° East 369 425 40,200 300 Climbing Kansas City Center
04:43PM 38.0622 -95.8236 106° East 370 426 40,600 300 Climbing Kansas City Center
04:44PM 38.0353 -95.7061 106° East 367 422 40,900 180 Climbing Kansas City Center
04:45PM 38.0069 -95.5878 107° East 367 422 41,000  Climbing Kansas City Center
04:46PM 37.9744 -95.4472 106° East 370 426 41,000  Level Kansas City Center
04:47PM 37.9461 -95.3269 107° East 373 429 41,000  Level Kansas City Center
04:48PM 37.9153 -95.1942 106° East 375 432 41,000  Level Kansas City Center
04:49PM 37.8825 -95.0603 107° East 380 437 41,000  Level Kansas City Center
04:50PM 37.8475 -94.9136 107° East 382 440 41,000  Level Kansas City Center
04:51PM 37.8178 -94.7892 107° East 385 443 41,000  Level Kansas City Center
04:52PM 37.7825 -94.6411 107° East 389 448 41,000  Level Kansas City Center
04:53PM 37.7533 -94.5158 106° East 389 448 41,000  Level Kansas City Center
04:54PM 37.7181 -94.3794 108° East 389 448 41,000  Level Kansas City Center
04:55PM 37.6858 -94.2478 107° East 390 449 41,000  Level Kansas City Center
04:56PM 37.6542 -94.1175 107° East 390 449 41,000  Level Kansas City Center
04:57PM 37.6153 -93.9600 107° East 390 449 41,000  Level Kansas City Center
04:58PM 37.5825 -93.8292 108° East 390 449 41,000  Level Kansas City Center
04:59PM 37.5500 -93.6983 107° East 390 449 41,000  Level Kansas City Center
05:00PM 37.5175 -93.5681 107° East 390 449 41,000  Level Kansas City Center
05:01PM 37.4847 -93.4383 108° East 390 449 41,000  Level Kansas City Center
05:02PM 37.4514 -93.3086 108° East 390 449 41,000  Level Kansas City Center
05:03PM 37.4119 -93.1536 108° East 390 449 41,000  Level Kansas City Center
05:04PM 37.3756 -93.0233 109° East 391 450 41,000  Level Kansas City Center
05:05PM 37.3447 -92.8983 107° East 384 442 41,000  Level Kansas City Center
05:07PM 37.3108 -92.7711 108° East 384 442 41,000  Level Kansas City Center
05:08PM 37.2781 -92.6428 108° East 384 442 41,000  Level Kansas City Center
05:09PM 37.2439 -92.5158 109° East 384 442 41,000  Level Kansas City Center
05:10PM 37.2036 -92.3631 108° East 384 442 41,000  Level Kansas City Center
05:11PM 37.1697 -92.2361 108° East 384 442 41,000  Level Kansas City Center
05:12PM 37.1358 -92.1089 108° East 384 442 41,000  Level Kansas City Center
05:13PM 37.1019 -91.9822 109° East 384 442 41,000  Level Kansas City Center
05:14PM 37.0664 -91.8525 109° East 387 445 41,000  Level Kansas City Center
05:15PM 37.0328 -91.7244 108° East 387 445 41,000  Level Kansas City Center
05:16PM 36.9900 -91.5714 109° East 387 445 41,000  Level Kansas City Center
05:17PM 36.9564 -91.4433 108° East 387 445 41,000  Level Kansas City Center
05:18PM 36.9217 -91.3161 109° East 387 445 41,000  Level Kansas City Center
05:19PM 36.8861 -91.1897 109° East 387 445 41,000  Level Kansas City Center
05:20PM 36.8594 -91.0892 108° East 387 445 41,000  Level Memphis Center
05:21PM 36.8231 -90.9628 110° East 387 445 41,000  Level Memphis Center
05:22PM 36.7806 -90.8111 109° East 387 445 41,000  Level Memphis Center
05:23PM 36.7456 -90.6839 109° East 387 445 41,000  Level Memphis Center
05:24PM 36.7086 -90.5578 110° East 387 445 41,000  Level Memphis Center
05:25PM 36.6725 -90.4311 110° East 387 445 41,000  Level Memphis Center
05:26PM 36.6367 -90.3042 109° East 387 445 41,000  Level Memphis Center
05:27PM 36.5997 -90.1767 110° East 388 447 41,000  Level Memphis Center
05:28PM 36.5553 -90.0256 110° East 388 447 41,000  Level Memphis Center
05:29PM 36.5194 -89.8983 109° East 388 447 41,000  Level Memphis Center
05:30PM 36.4825 -89.7731 110° East 388 447 41,000  Level Memphis Center
05:31PM 36.4447 -89.6453 110° East 389 448 41,000  Level Memphis Center
05:32PM 36.4078 -89.5197 110° East 389 448 41,000  Level Memphis Center
05:33PM 36.3683 -89.3861 110° East 389 448 41,000  Level Memphis Center
05:34PM 36.3308 -89.2611 110° East 389 448 41,000  Level Memphis Center
05:35PM 36.2914 -89.1272 110° East 390 449 41,000  Level Memphis Center
05:36PM 36.2550 -89.0039 110° East 388 447 41,000  Level Memphis Center
05:37PM 36.2175 -88.8803 111° Southeast 387 445 41,000  Level Memphis Center
05:38PM 36.1719 -88.7319 111° Southeast 387 445 41,000  Level Memphis Center
05:39PM 36.1364 -88.6100 110° East 382 440 41,000 -120 Level Memphis Center
05:40PM 36.0972 -88.4867 111° Southeast 382 440 40,800 -360 Descending Memphis Center
05:41PM 36.0589 -88.3611 111° Southeast 387 445 40,300 -480 Descending Memphis Center
05:42PM 36.0192 -88.2325 111° Southeast 395 455 39,900 -540 Descending Memphis Center
05:44PM 35.9736 -88.0806 110° East 406 467 39,200 -780 Descending Memphis Center
05:45PM 35.9314 -87.9458 111° Southeast 414 476 38,300 -600 Descending Memphis Center
05:46PM 35.8864 -87.8050 111° Southeast 431 496 38,000 -780 Descending Memphis Center
05:47PM 35.8425 -87.6653 111° Southeast 432 497 36,700 -1,320 Descending Memphis Center
05:48PM 35.7961 -87.5217 112° Southeast 443 510 35,300 -840 Descending Memphis Center
05:49PM 35.7439 -87.3544 111° Southeast 446 513 35,000 -480 Descending Memphis Center
05:50PM 35.7003 -87.2172 111° Southeast 436 502 34,400 -1,200 Descending Memphis Center
05:51PM 35.6556 -87.0783 112° Southeast 436 502 32,600 -1,860 Descending Memphis Center
05:52PM 35.6097 -86.9367 112° Southeast 437 503 30,600 -1,860 Descending Memphis Center
05:53PM 35.5642 -86.7964 112° Southeast 439 505 28,800 -1,800 Descending Memphis Center
05:54PM 35.5192 -86.6567 112° Southeast 438 504 27,000 -1,800 Descending Memphis Center
05:55PM 35.4736 -86.5186 112° Southeast 438 504 25,200 -1,980 Descending Memphis Center
05:56PM 35.4219 -86.3606 112° Southeast 430 495 23,000 -2,040 Descending Memphis Center
05:57PM 35.3808 -86.2325 111° Southeast 411 473 21,100 -1,980 Descending Memphis Center
05:58PM 35.3378 -86.1053 113° Southeast 390 449 19,000 -1,920 Descending Memphis Center
05:59PM 35.2983 -85.9889 113° Southeast 377 434 17,200 -1,860 Descending Memphis Center
06:00PM 35.2611 -85.8769 112° Southeast 364 419 15,200 -1,920 Descending Memphis Center
06:01PM 35.2244 -85.7650 112° Southeast 359 413 13,300 -1,920 Descending Memphis Center
06:02PM 35.1883 -85.6572 112° Southeast 348 400 11,300 -1,560 Descending Memphis Center
06:03PM 35.1453 -85.5328 113° Southeast 338 389 10,100 -1,560 Descending Memphis Center
06:04PM 35.0953 -85.4492 126° Southeast 316 364 8,100 -2,640 Descending Memphis Center
06:05PM 35.0414 -85.3711 130° Southeast 310 357 4,700 -2,760 Descending Memphis Center
06:06PM 35.0136 -85.2906 113° Southeast 281 323 2,400 -1,500 Descending Memphis Center
06:07PM 35.0008 -85.2311 105° East 232 267 1,700 -660 Descending Memphis Center
06:08PM 35.0228 -85.1981 51° Northeast 181 208 1,100 -600 Descending Memphis Center
06:10PM 35.0333 -85.2000 331° Northwest  Level FlightAware Approximate